sensor_id;sensor_type;location;lat;lon;timestamp;temperature;humidity
22850;DHT22;11591;44.792;10.358;2023-02-15T00:01:24;7.10;99.90
22850;DHT22;11591;44.792;10.358;2023-02-15T00:03:50;7.10;99.90
22850;DHT22;11591;44.792;10.358;2023-02-15T00:06:16;7.10;99.90
22850;DHT22;11591;44.792;10.358;2023-02-15T00:08:43;7.10;99.90
22850;DHT22;11591;44.792;10.358;2023-02-15T00:11:14;7.10;99.90
22850;DHT22;11591;44.792;10.358;2023-02-15T00:13:40;7.10;99.90
22850;DHT22;11591;44.792;10.358;2023-02-15T00:16:12;7.00;99.90
22850;DHT22;11591;44.792;10.358;2023-02-15T00:18:39;7.00;99.90
22850;DHT22;11591;44.792;10.358;2023-02-15T00:21:07;6.90;99.90
22850;DHT22;11591;44.792;10.358;2023-02-15T00:23:33;6.90;99.90
22850;DHT22;11591;44.792;10.358;2023-02-15T00:26:11;6.90;99.90
22850;DHT22;11591;44.792;10.358;2023-02-15T00:28:38;6.80;99.90
22850;DHT22;11591;44.792;10.358;2023-02-15T00:31:09;6.90;99.90
22850;DHT22;11591;44.792;10.358;2023-02-15T00:33:36;6.80;99.90
22850;DHT22;11591;44.792;10.358;2023-02-15T00:36:03;6.90;99.90
22850;DHT22;11591;44.792;10.358;2023-02-15T00:38:30;6.80;99.90
22850;DHT22;11591;44.792;10.358;2023-02-15T00:40:58;6.80;99.90
22850;DHT22;11591;44.792;10.358;2023-02-15T00:43:25;6.80;99.90
22850;DHT22;11591;44.792;10.358;2023-02-15T00:45:52;6.80;99.90
22850;DHT22;11591;44.792;10.358;2023-02-15T00:48:18;6.80;99.90
22850;DHT22;11591;44.792;10.358;2023-02-15T00:50:49;6.80;99.90
22850;DHT22;11591;44.792;10.358;2023-02-15T00:53:14;6.80;99.90
22850;DHT22;11591;44.792;10.358;2023-02-15T00:55:41;6.80;99.90
22850;DHT22;11591;44.792;10.358;2023-02-15T00:58:08;6.80;99.90
22850;DHT22;11591;44.792;10.358;2023-02-15T01:00:34;6.80;99.90
22850;DHT22;11591;44.792;10.358;2023-02-15T01:03:00;6.80;99.90
22850;DHT22;11591;44.792;10.358;2023-02-15T01:05:26;6.70;99.90
22850;DHT22;11591;44.792;10.358;2023-02-15T01:07:52;6.70;99.90
22850;DHT22;11591;44.792;10.358;2023-02-15T01:10:18;6.70;99.90
22850;DHT22;11591;44.792;10.358;2023-02-15T01:12:44;6.60;99.90
22850;DHT22;11591;44.792;10.358;2023-02-15T01:15:10;6.60;99.90
22850;DHT22;11591;44.792;10.358;2023-02-15T01:17:36;6.60;99.90
22850;DHT22;11591;44.792;10.358;2023-02-15T01:20:03;6.60;99.90
22850;DHT22;11591;44.792;10.358;2023-02-15T01:22:29;6.60;99.90
22850;DHT22;11591;44.792;10.358;2023-02-15T01:24:55;6.50;99.90
22850;DHT22;11591;44.792;10.358;2023-02-15T01:27:21;6.50;99.90
22850;DHT22;11591;44.792;10.358;2023-02-15T01:29:47;6.60;99.90
22850;DHT22;11591;44.792;10.358;2023-02-15T01:32:14;6.60;99.90
22850;DHT22;11591;44.792;10.358;2023-02-15T01:34:42;6.50;99.90
22850;DHT22;11591;44.792;10.358;2023-02-15T01:37:08;6.50;99.90
22850;DHT22;11591;44.792;10.358;2023-02-15T01:39:34;6.50;99.90
22850;DHT22;11591;44.792;10.358;2023-02-15T01:42:00;6.50;99.90
22850;DHT22;11591;44.792;10.358;2023-02-15T01:45:04;6.60;99.90
22850;DHT22;11591;44.792;10.358;2023-02-15T01:47:44;6.60;99.90
22850;DHT22;11591;44.792;10.358;2023-02-15T01:55:22;6.50;99.90
22850;DHT22;11591;44.792;10.358;2023-02-15T01:57:49;6.50;99.90
22850;DHT22;11591;44.792;10.358;2023-02-15T02:00:17;6.50;99.90
22850;DHT22;11591;44.792;10.358;2023-02-15T02:02:48;6.50;99.90
22850;DHT22;11591;44.792;10.358;2023-02-15T02:05:15;6.50;99.90
22850;DHT22;11591;44.792;10.358;2023-02-15T02:07:43;6.50;99.90
22850;DHT22;11591;44.792;10.358;2023-02-15T02:10:13;6.50;99.90
22850;DHT22;11591;44.792;10.358;2023-02-15T02:12:41;6.40;99.90
22850;DHT22;11591;44.792;10.358;2023-02-15T02:15:08;6.40;99.90
22850;DHT22;11591;44.792;10.358;2023-02-15T02:37:36;6.40;99.90
22850;DHT22;11591;44.792;10.358;2023-02-15T02:39:59;6.40;99.90
22850;DHT22;11591;44.792;10.358;2023-02-15T02:42:33;6.40;99.90
22850;DHT22;11591;44.792;10.358;2023-02-15T02:45:13;6.40;99.90
22850;DHT22;11591;44.792;10.358;2023-02-15T02:47:54;6.30;99.90
22850;DHT22;11591;44.792;10.358;2023-02-15T02:50:25;6.30;99.90
22850;DHT22;11591;44.792;10.358;2023-02-15T02:52:53;6.30;99.90
22850;DHT22;11591;44.792;10.358;2023-02-15T03:00:59;6.30;99.90
22850;DHT22;11591;44.792;10.358;2023-02-15T03:03:32;6.30;99.90
22850;DHT22;11591;44.792;10.358;2023-02-15T03:06:02;6.30;99.90
22850;DHT22;11591;44.792;10.358;2023-02-15T03:08:35;6.20;99.90
22850;DHT22;11591;44.792;10.358;2023-02-15T03:11:03;6.20;99.90
22850;DHT22;11591;44.792;10.358;2023-02-15T03:13:29;6.20;99.90
22850;DHT22;11591;44.792;10.358;2023-02-15T03:15:56;6.20;99.90
22850;DHT22;11591;44.792;10.358;2023-02-15T03:18:46;6.10;99.90
22850;DHT22;11591;44.792;10.358;2023-02-15T03:21:22;6.10;99.90
22850;DHT22;11591;44.792;10.358;2023-02-15T03:23:58;6.00;99.90
22850;DHT22;11591;44.792;10.358;2023-02-15T03:26:26;6.10;99.90
22850;DHT22;11591;44.792;10.358;2023-02-15T03:28:57;6.20;99.90
22850;DHT22;11591;44.792;10.358;2023-02-15T03:31:27;6.20;99.90
22850;DHT22;11591;44.792;10.358;2023-02-15T03:34:00;6.20;99.90
22850;DHT22;11591;44.792;10.358;2023-02-15T03:47:20;5.90;99.90
22850;DHT22;11591;44.792;10.358;2023-02-15T03:49:55;5.80;99.90
22850;DHT22;11591;44.792;10.358;2023-02-15T03:52:25;5.80;99.90
22850;DHT22;11591;44.792;10.358;2023-02-15T03:54:51;5.80;99.90
22850;DHT22;11591;44.792;10.358;2023-02-15T03:57:26;5.90;99.90
22850;DHT22;11591;44.792;10.358;2023-02-15T04:00:19;5.90;99.90
22850;DHT22;11591;44.792;10.358;2023-02-15T04:03:27;5.90;99.90
22850;DHT22;11591;44.792;10.358;2023-02-15T04:05:56;5.80;99.90
22850;DHT22;11591;44.792;10.358;2023-02-15T04:08:22;5.80;99.90
22850;DHT22;11591;44.792;10.358;2023-02-15T04:11:08;5.70;99.90
22850;DHT22;11591;44.792;10.358;2023-02-15T04:13:34;5.70;99.90
22850;DHT22;11591;44.792;10.358;2023-02-15T04:15:59;5.70;99.90
22850;DHT22;11591;44.792;10.358;2023-02-15T04:18:33;5.70;99.90
22850;DHT22;11591;44.792;10.358;2023-02-15T04:21:18;5.70;99.90
22850;DHT22;11591;44.792;10.358;2023-02-15T04:24:02;5.70;99.90
22850;DHT22;11591;44.792;10.358;2023-02-15T04:26:47;5.70;99.90
22850;DHT22;11591;44.792;10.358;2023-02-15T04:29:14;5.70;99.90
22850;DHT22;11591;44.792;10.358;2023-02-15T04:31:41;5.80;99.90
22850;DHT22;11591;44.792;10.358;2023-02-15T04:34:08;5.70;99.90
22850;DHT22;11591;44.792;10.358;2023-02-15T04:36:35;5.80;99.90
22850;DHT22;11591;44.792;10.358;2023-02-15T04:39:01;5.70;99.90
22850;DHT22;11591;44.792;10.358;2023-02-15T04:41:27;5.70;99.90
22850;DHT22;11591;44.792;10.358;2023-02-15T04:43:52;5.60;99.90
22850;DHT22;11591;44.792;10.358;2023-02-15T04:46:18;5.60;99.90
22850;DHT22;11591;44.792;10.358;2023-02-15T04:48:44;5.60;99.90
22850;DHT22;11591;44.792;10.358;2023-02-15T04:51:10;5.50;99.90
22850;DHT22;11591;44.792;10.358;2023-02-15T04:53:36;5.50;99.90
22850;DHT22;11591;44.792;10.358;2023-02-15T04:56:02;5.50;99.90
22850;DHT22;11591;44.792;10.358;2023-02-15T04:58:28;5.50;99.90
22850;DHT22;11591;44.792;10.358;2023-02-15T05:00:57;5.40;99.90
22850;DHT22;11591;44.792;10.358;2023-02-15T05:03:24;5.40;99.90
22850;DHT22;11591;44.792;10.358;2023-02-15T05:05:50;5.40;99.90
22850;DHT22;11591;44.792;10.358;2023-02-15T05:08:16;5.30;99.90
22850;DHT22;11591;44.792;10.358;2023-02-15T05:10:42;5.40;99.90
22850;DHT22;11591;44.792;10.358;2023-02-15T05:13:08;5.40;99.90
22850;DHT22;11591;44.792;10.358;2023-02-15T05:15:33;5.30;99.90
22850;DHT22;11591;44.792;10.358;2023-02-15T05:17:59;5.30;99.90
22850;DHT22;11591;44.792;10.358;2023-02-15T05:20:26;5.30;99.90
22850;DHT22;11591;44.792;10.358;2023-02-15T05:22:55;5.40;99.90
22850;DHT22;11591;44.792;10.358;2023-02-15T05:25:21;5.40;99.90
22850;DHT22;11591;44.792;10.358;2023-02-15T05:28:11;5.40;99.90
22850;DHT22;11591;44.792;10.358;2023-02-15T05:30:50;5.40;99.90
22850;DHT22;11591;44.792;10.358;2023-02-15T05:33:17;5.40;99.90
22850;DHT22;11591;44.792;10.358;2023-02-15T05:35:42;5.30;99.90
22850;DHT22;11591;44.792;10.358;2023-02-15T05:38:08;5.30;99.90
22850;DHT22;11591;44.792;10.358;2023-02-15T05:40:35;5.30;99.90
22850;DHT22;11591;44.792;10.358;2023-02-15T05:43:00;5.30;99.90
22850;DHT22;11591;44.792;10.358;2023-02-15T05:45:26;5.30;99.90
22850;DHT22;11591;44.792;10.358;2023-02-15T05:47:52;5.20;99.90
22850;DHT22;11591;44.792;10.358;2023-02-15T05:50:18;5.20;99.90
22850;DHT22;11591;44.792;10.358;2023-02-15T05:52:45;5.20;99.90
22850;DHT22;11591;44.792;10.358;2023-02-15T05:55:11;5.20;99.90
22850;DHT22;11591;44.792;10.358;2023-02-15T05:57:37;5.20;99.90
22850;DHT22;11591;44.792;10.358;2023-02-15T06:00:04;5.20;99.90
22850;DHT22;11591;44.792;10.358;2023-02-15T06:02:37;5.20;99.90
22850;DHT22;11591;44.792;10.358;2023-02-15T06:05:04;5.20;99.90
22850;DHT22;11591;44.792;10.358;2023-02-15T06:07:30;5.20;99.90
22850;DHT22;11591;44.792;10.358;2023-02-15T06:09:56;5.20;99.90
22850;DHT22;11591;44.792;10.358;2023-02-15T06:12:22;5.10;99.90
22850;DHT22;11591;44.792;10.358;2023-02-15T06:14:48;5.10;99.90
22850;DHT22;11591;44.792;10.358;2023-02-15T06:17:14;5.00;99.90
22850;DHT22;11591;44.792;10.358;2023-02-15T06:19:39;5.00;99.90
22850;DHT22;11591;44.792;10.358;2023-02-15T06:22:05;5.10;99.90
22850;DHT22;11591;44.792;10.358;2023-02-15T06:24:32;5.10;99.90
22850;DHT22;11591;44.792;10.358;2023-02-15T06:26:58;5.10;99.90
22850;DHT22;11591;44.792;10.358;2023-02-15T06:29:24;5.10;99.90
22850;DHT22;11591;44.792;10.358;2023-02-15T06:31:50;5.10;99.90
22850;DHT22;11591;44.792;10.358;2023-02-15T06:34:16;5.10;99.90
22850;DHT22;11591;44.792;10.358;2023-02-15T06:36:41;5.20;99.90
22850;DHT22;11591;44.792;10.358;2023-02-15T06:39:07;5.20;99.90
22850;DHT22;11591;44.792;10.358;2023-02-15T06:41:33;5.20;99.90
22850;DHT22;11591;44.792;10.358;2023-02-15T06:43:59;5.20;99.90
22850;DHT22;11591;44.792;10.358;2023-02-15T06:46:25;5.20;99.90
22850;DHT22;11591;44.792;10.358;2023-02-15T06:48:51;5.20;99.90
22850;DHT22;11591;44.792;10.358;2023-02-15T06:51:17;5.20;99.90
22850;DHT22;11591;44.792;10.358;2023-02-15T06:53:43;5.20;99.90
22850;DHT22;11591;44.792;10.358;2023-02-15T06:56:10;5.20;99.90
22850;DHT22;11591;44.792;10.358;2023-02-15T06:58:39;5.20;99.90
22850;DHT22;11591;44.792;10.358;2023-02-15T07:01:06;5.20;99.90
22850;DHT22;11591;44.792;10.358;2023-02-15T07:03:32;5.20;99.90
22850;DHT22;11591;44.792;10.358;2023-02-15T07:06:00;5.20;99.90
22850;DHT22;11591;44.792;10.358;2023-02-15T07:08:26;5.20;99.90
22850;DHT22;11591;44.792;10.358;2023-02-15T07:10:54;5.20;99.90
22850;DHT22;11591;44.792;10.358;2023-02-15T07:13:20;5.30;99.90
22850;DHT22;11591;44.792;10.358;2023-02-15T07:15:47;5.30;99.90
22850;DHT22;11591;44.792;10.358;2023-02-15T07:18:13;5.40;99.90
22850;DHT22;11591;44.792;10.358;2023-02-15T07:20:39;5.40;99.90
22850;DHT22;11591;44.792;10.358;2023-02-15T07:23:07;5.40;99.90
22850;DHT22;11591;44.792;10.358;2023-02-15T07:25:33;5.50;99.90
22850;DHT22;11591;44.792;10.358;2023-02-15T07:28:01;5.50;99.90
22850;DHT22;11591;44.792;10.358;2023-02-15T07:30:27;5.60;99.90
22850;DHT22;11591;44.792;10.358;2023-02-15T07:32:57;5.70;99.90
22850;DHT22;11591;44.792;10.358;2023-02-15T07:35:49;5.80;99.90
22850;DHT22;11591;44.792;10.358;2023-02-15T07:38:16;5.80;99.90
22850;DHT22;11591;44.792;10.358;2023-02-15T07:40:42;5.90;99.90
22850;DHT22;11591;44.792;10.358;2023-02-15T07:43:09;6.00;99.90
22850;DHT22;11591;44.792;10.358;2023-02-15T07:45:34;6.00;99.90
22850;DHT22;11591;44.792;10.358;2023-02-15T07:48:01;6.10;99.90
22850;DHT22;11591;44.792;10.358;2023-02-15T07:50:27;6.20;99.90
22850;DHT22;11591;44.792;10.358;2023-02-15T07:52:53;6.30;99.90
22850;DHT22;11591;44.792;10.358;2023-02-15T07:55:19;6.30;99.90
22850;DHT22;11591;44.792;10.358;2023-02-15T07:57:46;6.40;99.90
22850;DHT22;11591;44.792;10.358;2023-02-15T08:00:14;6.50;99.90
22850;DHT22;11591;44.792;10.358;2023-02-15T08:02:40;6.60;99.90
22850;DHT22;11591;44.792;10.358;2023-02-15T08:05:06;6.70;99.90
22850;DHT22;11591;44.792;10.358;2023-02-15T08:07:32;6.80;99.90
22850;DHT22;11591;44.792;10.358;2023-02-15T08:09:58;6.80;99.90
22850;DHT22;11591;44.792;10.358;2023-02-15T08:12:28;6.90;99.90
22850;DHT22;11591;44.792;10.358;2023-02-15T08:14:53;7.00;99.90
22850;DHT22;11591;44.792;10.358;2023-02-15T08:17:19;7.10;99.90
22850;DHT22;11591;44.792;10.358;2023-02-15T08:19:45;7.20;99.90
22850;DHT22;11591;44.792;10.358;2023-02-15T08:22:13;7.20;99.90
22850;DHT22;11591;44.792;10.358;2023-02-15T08:24:39;7.30;99.90
22850;DHT22;11591;44.792;10.358;2023-02-15T08:27:08;7.40;99.90
22850;DHT22;11591;44.792;10.358;2023-02-15T08:29:36;7.40;99.90
22850;DHT22;11591;44.792;10.358;2023-02-15T08:32:08;7.40;99.90
22850;DHT22;11591;44.792;10.358;2023-02-15T08:34:38;7.40;99.90
22850;DHT22;11591;44.792;10.358;2023-02-15T08:37:04;7.40;99.90
22850;DHT22;11591;44.792;10.358;2023-02-15T08:39:31;7.50;99.90
22850;DHT22;11591;44.792;10.358;2023-02-15T08:41:57;7.50;99.90
22850;DHT22;11591;44.792;10.358;2023-02-15T08:44:23;7.50;99.90
22850;DHT22;11591;44.792;10.358;2023-02-15T08:46:49;7.50;99.90
22850;DHT22;11591;44.792;10.358;2023-02-15T08:49:17;7.60;99.90
22850;DHT22;11591;44.792;10.358;2023-02-15T08:51:44;7.60;99.90
22850;DHT22;11591;44.792;10.358;2023-02-15T08:54:13;7.60;99.90
22850;DHT22;11591;44.792;10.358;2023-02-15T08:56:41;7.60;99.90
22850;DHT22;11591;44.792;10.358;2023-02-15T08:59:18;7.70;99.90
22850;DHT22;11591;44.792;10.358;2023-02-15T09:01:45;7.80;99.90
22850;DHT22;11591;44.792;10.358;2023-02-15T09:04:11;7.80;99.90
22850;DHT22;11591;44.792;10.358;2023-02-15T09:06:39;7.80;99.90
22850;DHT22;11591;44.792;10.358;2023-02-15T09:09:06;7.90;99.90
22850;DHT22;11591;44.792;10.358;2023-02-15T09:11:37;7.90;99.90
22850;DHT22;11591;44.792;10.358;2023-02-15T09:14:06;8.00;99.90
22850;DHT22;11591;44.792;10.358;2023-02-15T09:16:36;8.00;99.90
22850;DHT22;11591;44.792;10.358;2023-02-15T09:19:03;8.10;99.90
22850;DHT22;11591;44.792;10.358;2023-02-15T09:21:35;8.20;99.90
22850;DHT22;11591;44.792;10.358;2023-02-15T09:24:07;8.30;99.90
22850;DHT22;11591;44.792;10.358;2023-02-15T09:26:35;8.30;99.90
22850;DHT22;11591;44.792;10.358;2023-02-15T09:29:02;8.30;99.90
22850;DHT22;11591;44.792;10.358;2023-02-15T09:31:31;8.40;99.90
22850;DHT22;11591;44.792;10.358;2023-02-15T09:33:59;8.40;99.90
22850;DHT22;11591;44.792;10.358;2023-02-15T09:36:30;8.40;99.90
22850;DHT22;11591;44.792;10.358;2023-02-15T09:39:15;8.50;99.90
22850;DHT22;11591;44.792;10.358;2023-02-15T09:42:01;8.60;99.90
22850;DHT22;11591;44.792;10.358;2023-02-15T10:28:39;9.70;99.90
22850;DHT22;11591;44.792;10.358;2023-02-15T10:31:58;9.70;99.90
22850;DHT22;11591;44.792;10.358;2023-02-15T10:34:16;9.80;99.90
22850;DHT22;11591;44.792;10.358;2023-02-15T10:51:24;10.20;99.90
22850;DHT22;11591;44.792;10.358;2023-02-15T10:56:51;10.30;99.90
22850;DHT22;11591;44.792;10.358;2023-02-15T11:02:37;10.50;99.90
22850;DHT22;11591;44.792;10.358;2023-02-15T11:05:20;10.50;99.90
22850;DHT22;11591;44.792;10.358;2023-02-15T11:07:51;10.60;99.90
22850;DHT22;11591;44.792;10.358;2023-02-15T11:12:53;10.60;99.90
22850;DHT22;11591;44.792;10.358;2023-02-15T11:21:36;10.90;99.90
22850;DHT22;11591;44.792;10.358;2023-02-15T11:24:28;11.00;99.90
22850;DHT22;11591;44.792;10.358;2023-02-15T11:27:02;11.10;99.90
22850;DHT22;11591;44.792;10.358;2023-02-15T11:29:36;11.30;99.90
22850;DHT22;11591;44.792;10.358;2023-02-15T11:34:54;11.30;99.90
22850;DHT22;11591;44.792;10.358;2023-02-15T11:37:31;11.30;99.90
22850;DHT22;11591;44.792;10.358;2023-02-15T11:40:01;11.30;99.90
22850;DHT22;11591;44.792;10.358;2023-02-15T11:42:31;11.40;99.90
22850;DHT22;11591;44.792;10.358;2023-02-15T11:45:21;11.40;99.90
22850;DHT22;11591;44.792;10.358;2023-02-15T11:47:48;11.50;99.90
22850;DHT22;11591;44.792;10.358;2023-02-15T11:50:22;11.60;99.90
22850;DHT22;11591;44.792;10.358;2023-02-15T11:52:54;11.60;99.90
22850;DHT22;11591;44.792;10.358;2023-02-15T11:55:23;11.70;99.90
22850;DHT22;11591;44.792;10.358;2023-02-15T11:58:23;12.00;99.90
22850;DHT22;11591;44.792;10.358;2023-02-15T12:01:30;12.00;99.90
22850;DHT22;11591;44.792;10.358;2023-02-15T12:03:51;12.00;99.90
22850;DHT22;11591;44.792;10.358;2023-02-15T12:06:28;12.00;99.90
22850;DHT22;11591;44.792;10.358;2023-02-15T12:09:06;12.10;99.90
22850;DHT22;11591;44.792;10.358;2023-02-15T12:11:40;12.10;99.90
22850;DHT22;11591;44.792;10.358;2023-02-15T12:14:09;12.10;99.90
22850;DHT22;11591;44.792;10.358;2023-02-15T12:16:50;12.10;99.90
22850;DHT22;11591;44.792;10.358;2023-02-15T12:19:37;12.20;99.90
22850;DHT22;11591;44.792;10.358;2023-02-15T12:22:10;12.20;99.90
22850;DHT22;11591;44.792;10.358;2023-02-15T12:24:46;12.20;99.90
22850;DHT22;11591;44.792;10.358;2023-02-15T12:32:28;12.40;99.90
22850;DHT22;11591;44.792;10.358;2023-02-15T12:35:39;12.40;99.90
22850;DHT22;11591;44.792;10.358;2023-02-15T12:37:59;12.60;99.90
22850;DHT22;11591;44.792;10.358;2023-02-15T12:40:27;12.70;99.90
22850;DHT22;11591;44.792;10.358;2023-02-15T12:42:54;12.70;99.90
22850;DHT22;11591;44.792;10.358;2023-02-15T12:45:27;12.70;99.90
22850;DHT22;11591;44.792;10.358;2023-02-15T12:50:41;13.00;99.90
22850;DHT22;11591;44.792;10.358;2023-02-15T12:53:18;13.10;99.90
22850;DHT22;11591;44.792;10.358;2023-02-15T12:55:56;13.10;99.90
22850;DHT22;11591;44.792;10.358;2023-02-15T12:58:27;13.10;99.90
22850;DHT22;11591;44.792;10.358;2023-02-15T13:01:12;13.10;99.90
22850;DHT22;11591;44.792;10.358;2023-02-15T13:03:55;13.20;99.90
22850;DHT22;11591;44.792;10.358;2023-02-15T13:06:22;13.20;99.90
22850;DHT22;11591;44.792;10.358;2023-02-15T13:08:51;13.30;99.90
22850;DHT22;11591;44.792;10.358;2023-02-15T13:11:43;13.40;99.90
22850;DHT22;11591;44.792;10.358;2023-02-15T13:14:19;13.50;99.90
22850;DHT22;11591;44.792;10.358;2023-02-15T13:16:51;13.50;99.90
22850;DHT22;11591;44.792;10.358;2023-02-15T13:19:26;13.50;99.90
22850;DHT22;11591;44.792;10.358;2023-02-15T13:21:55;13.50;99.90
22850;DHT22;11591;44.792;10.358;2023-02-15T13:24:25;13.50;99.90
22850;DHT22;11591;44.792;10.358;2023-02-15T13:26:56;13.50;99.90
22850;DHT22;11591;44.792;10.358;2023-02-15T13:29:28;13.50;99.90
22850;DHT22;11591;44.792;10.358;2023-02-15T13:31:56;13.60;99.90
22850;DHT22;11591;44.792;10.358;2023-02-15T13:34:28;13.70;99.90
22850;DHT22;11591;44.792;10.358;2023-02-15T13:37:02;13.80;99.90
22850;DHT22;11591;44.792;10.358;2023-02-15T13:47:46;14.00;99.90
22850;DHT22;11591;44.792;10.358;2023-02-15T14:26:14;21.30;99.90
22850;DHT22;11591;44.792;10.358;2023-02-15T14:29:02;21.40;99.90
22850;DHT22;11591;44.792;10.358;2023-02-15T14:31:38;21.50;99.60
22850;DHT22;11591;44.792;10.358;2023-02-15T14:34:08;21.50;99.70
22850;DHT22;11591;44.792;10.358;2023-02-15T14:36:43;21.50;99.40
22850;DHT22;11591;44.792;10.358;2023-02-15T14:45:21;21.40;99.20
22850;DHT22;11591;44.792;10.358;2023-02-15T14:50:43;21.30;98.70
22850;DHT22;11591;44.792;10.358;2023-02-15T14:53:33;21.10;99.00
22850;DHT22;11591;44.792;10.358;2023-02-15T15:01:33;20.70;99.60
22850;DHT22;11591;44.792;10.358;2023-02-15T15:04:11;20.70;99.60
22850;DHT22;11591;44.792;10.358;2023-02-15T15:06:40;20.80;99.50
22850;DHT22;11591;44.792;10.358;2023-02-15T15:09:21;20.90;99.60
22850;DHT22;11591;44.792;10.358;2023-02-15T15:11:52;20.90;99.70
22850;DHT22;11591;44.792;10.358;2023-02-15T15:16:57;20.80;99.50
22850;DHT22;11591;44.792;10.358;2023-02-15T15:22:25;20.60;99.50
22850;DHT22;11591;44.792;10.358;2023-02-15T15:25:08;20.60;99.50
22850;DHT22;11591;44.792;10.358;2023-02-15T15:35:33;20.20;99.20
22850;DHT22;11591;44.792;10.358;2023-02-15T15:48:48;19.60;99.90
22850;DHT22;11591;44.792;10.358;2023-02-15T15:51:40;19.60;99.90
22850;DHT22;11591;44.792;10.358;2023-02-15T15:54:17;19.50;99.90
22850;DHT22;11591;44.792;10.358;2023-02-15T15:56:53;19.40;99.90
22850;DHT22;11591;44.792;10.358;2023-02-15T15:59:26;19.30;99.90
22850;DHT22;11591;44.792;10.358;2023-02-15T16:01:52;19.20;99.90
22850;DHT22;11591;44.792;10.358;2023-02-15T16:04:30;19.20;99.90
22850;DHT22;11591;44.792;10.358;2023-02-15T16:06:57;19.20;99.90
22850;DHT22;11591;44.792;10.358;2023-02-15T16:09:25;19.20;99.90
22850;DHT22;11591;44.792;10.358;2023-02-15T16:11:53;19.20;99.90
22850;DHT22;11591;44.792;10.358;2023-02-15T16:14:32;19.10;99.90
22850;DHT22;11591;44.792;10.358;2023-02-15T16:17:02;19.00;99.90
22850;DHT22;11591;44.792;10.358;2023-02-15T16:19:33;18.80;99.90
22850;DHT22;11591;44.792;10.358;2023-02-15T16:22:01;18.50;99.90
22850;DHT22;11591;44.792;10.358;2023-02-15T16:32:46;17.80;99.90
22850;DHT22;11591;44.792;10.358;2023-02-15T16:35:15;17.60;99.90
22850;DHT22;11591;44.792;10.358;2023-02-15T16:37:41;17.30;99.90
22850;DHT22;11591;44.792;10.358;2023-02-15T16:40:36;17.10;99.90
22850;DHT22;11591;44.792;10.358;2023-02-15T16:43:06;16.80;99.90
22850;DHT22;11591;44.792;10.358;2023-02-15T16:45:37;16.60;99.90
22850;DHT22;11591;44.792;10.358;2023-02-15T16:48:08;16.40;99.90
22850;DHT22;11591;44.792;10.358;2023-02-15T16:50:38;16.20;99.90
22850;DHT22;11591;44.792;10.358;2023-02-15T16:53:07;16.00;99.90
22850;DHT22;11591;44.792;10.358;2023-02-15T16:55:41;15.80;99.90
22850;DHT22;11591;44.792;10.358;2023-02-15T16:58:16;15.60;99.90
22850;DHT22;11591;44.792;10.358;2023-02-15T17:00:43;15.50;99.90
22850;DHT22;11591;44.792;10.358;2023-02-15T17:05:45;15.30;99.90
22850;DHT22;11591;44.792;10.358;2023-02-15T17:08:17;15.20;99.90
22850;DHT22;11591;44.792;10.358;2023-02-15T17:11:03;15.00;99.90
22850;DHT22;11591;44.792;10.358;2023-02-15T17:13:30;14.90;99.90
22850;DHT22;11591;44.792;10.358;2023-02-15T17:18:30;14.80;99.90
22850;DHT22;11591;44.792;10.358;2023-02-15T17:21:08;14.70;99.90
22850;DHT22;11591;44.792;10.358;2023-02-15T17:23:41;14.60;99.90
22850;DHT22;11591;44.792;10.358;2023-02-15T17:26:17;14.50;99.90
22850;DHT22;11591;44.792;10.358;2023-02-15T17:28:59;14.40;99.90
22850;DHT22;11591;44.792;10.358;2023-02-15T17:31:30;14.40;99.90
22850;DHT22;11591;44.792;10.358;2023-02-15T17:33:58;14.30;99.90
22850;DHT22;11591;44.792;10.358;2023-02-15T17:36:26;14.20;99.90
22850;DHT22;11591;44.792;10.358;2023-02-15T17:43:52;14.00;99.90
22850;DHT22;11591;44.792;10.358;2023-02-15T17:46:18;13.90;99.90
22850;DHT22;11591;44.792;10.358;2023-02-15T17:48:49;13.90;99.90
22850;DHT22;11591;44.792;10.358;2023-02-15T17:51:16;13.80;99.90
22850;DHT22;11591;44.792;10.358;2023-02-15T17:53:43;13.80;99.90
22850;DHT22;11591;44.792;10.358;2023-02-15T17:56:29;13.70;99.90
22850;DHT22;11591;44.792;10.358;2023-02-15T17:58:55;13.60;99.90
22850;DHT22;11591;44.792;10.358;2023-02-15T18:01:21;13.50;99.90
22850;DHT22;11591;44.792;10.358;2023-02-15T18:04:13;13.50;99.90
22850;DHT22;11591;44.792;10.358;2023-02-15T18:06:58;13.40;99.90
22850;DHT22;11591;44.792;10.358;2023-02-15T18:09:42;13.40;99.90
22850;DHT22;11591;44.792;10.358;2023-02-15T18:12:29;13.30;99.90
22850;DHT22;11591;44.792;10.358;2023-02-15T18:14:56;13.10;99.90
22850;DHT22;11591;44.792;10.358;2023-02-15T18:17:36;13.00;99.90
22850;DHT22;11591;44.792;10.358;2023-02-15T18:20:06;12.90;99.90
22850;DHT22;11591;44.792;10.358;2023-02-15T18:22:33;12.90;99.90
22850;DHT22;11591;44.792;10.358;2023-02-15T18:24:59;12.90;99.90
22850;DHT22;11591;44.792;10.358;2023-02-15T18:27:24;12.90;99.90
22850;DHT22;11591;44.792;10.358;2023-02-15T18:29:50;12.80;99.90
22850;DHT22;11591;44.792;10.358;2023-02-15T18:32:28;12.60;99.90
22850;DHT22;11591;44.792;10.358;2023-02-15T18:34:57;12.60;99.90
22850;DHT22;11591;44.792;10.358;2023-02-15T18:37:25;12.50;99.90
22850;DHT22;11591;44.792;10.358;2023-02-15T18:39:52;12.40;99.90
22850;DHT22;11591;44.792;10.358;2023-02-15T18:42:23;12.40;99.90
22850;DHT22;11591;44.792;10.358;2023-02-15T18:44:54;12.30;99.90
22850;DHT22;11591;44.792;10.358;2023-02-15T18:47:20;12.30;99.90
22850;DHT22;11591;44.792;10.358;2023-02-15T18:49:45;12.30;99.90
22850;DHT22;11591;44.792;10.358;2023-02-15T18:52:16;12.30;99.90
22850;DHT22;11591;44.792;10.358;2023-02-15T18:54:46;12.30;99.90
22850;DHT22;11591;44.792;10.358;2023-02-15T18:57:13;12.20;99.90
22850;DHT22;11591;44.792;10.358;2023-02-15T18:59:40;12.10;99.90
22850;DHT22;11591;44.792;10.358;2023-02-15T19:02:13;12.00;99.90
22850;DHT22;11591;44.792;10.358;2023-02-15T19:04:39;11.90;99.90
22850;DHT22;11591;44.792;10.358;2023-02-15T19:07:07;11.80;99.90
22850;DHT22;11591;44.792;10.358;2023-02-15T19:09:38;11.70;99.90
22850;DHT22;11591;44.792;10.358;2023-02-15T19:12:04;11.70;99.90
22850;DHT22;11591;44.792;10.358;2023-02-15T19:14:31;11.60;99.90
22850;DHT22;11591;44.792;10.358;2023-02-15T19:16:58;11.50;99.90
22850;DHT22;11591;44.792;10.358;2023-02-15T19:19:25;11.50;99.90
22850;DHT22;11591;44.792;10.358;2023-02-15T19:21:51;11.40;99.90
22850;DHT22;11591;44.792;10.358;2023-02-15T19:24:21;11.40;99.90
22850;DHT22;11591;44.792;10.358;2023-02-15T19:26:47;11.30;99.90
22850;DHT22;11591;44.792;10.358;2023-02-15T19:29:20;11.20;99.90
22850;DHT22;11591;44.792;10.358;2023-02-15T19:31:46;11.20;99.90
22850;DHT22;11591;44.792;10.358;2023-02-15T19:34:17;11.10;99.90